createdAt,value
2022-07-31T00:01:32.883Z,25.00
2022-07-31T00:04:34.915Z,25.00
2022-07-31T00:07:37.109Z,25.00
2022-07-31T00:10:39.226Z,24.90
2022-07-31T00:13:56.393Z,24.90
2022-07-31T00:16:58.823Z,24.90
2022-07-31T00:20:00.643Z,24.90
2022-07-31T00:23:02.449Z,24.90
2022-07-31T00:26:04.282Z,24.90
2022-07-31T00:29:06.618Z,24.90
2022-07-31T00:32:08.737Z,24.90
2022-07-31T00:35:12.339Z,24.90
2022-07-31T00:38:29.861Z,24.90
2022-07-31T00:41:43.139Z,25.00
2022-07-31T00:44:47.687Z,24.90
2022-07-31T00:47:49.743Z,24.90
2022-07-31T00:50:57.715Z,24.90
2022-07-31T00:53:59.521Z,24.90
2022-07-31T00:57:02.987Z,24.90
2022-07-31T01:00:06.537Z,24.90
2022-07-31T01:03:08.373Z,24.90
2022-07-31T01:06:10.313Z,24.90
2022-07-31T01:09:14.630Z,24.90
2022-07-31T01:12:29.585Z,24.90
2022-07-31T01:15:31.915Z,24.90
2022-07-31T01:18:37.116Z,24.90
2022-07-31T01:21:49.304Z,24.90
2022-07-31T01:25:07.030Z,24.90
2022-07-31T01:28:57.175Z,24.90
2022-07-31T01:32:13.496Z,24.90
2022-07-31T01:35:21.891Z,24.90
2022-07-31T01:38:28.163Z,24.90
2022-07-31T01:41:43.127Z,24.90
2022-07-31T01:44:47.813Z,24.80
2022-07-31T01:47:50.409Z,24.80
2022-07-31T01:50:57.031Z,24.80
2022-07-31T01:54:01.390Z,24.80
2022-07-31T01:57:05.133Z,24.80
2022-07-31T02:00:33.272Z,24.80
2022-07-31T02:03:43.728Z,24.80
2022-07-31T02:06:51.004Z,24.80
2022-07-31T02:09:58.725Z,24.80
2022-07-31T02:13:06.963Z,24.80
2022-07-31T02:16:10.899Z,24.80
2022-07-31T02:19:14.868Z,24.80
2022-07-31T02:22:16.796Z,24.80
2022-07-31T02:25:18.729Z,24.80
2022-07-31T02:28:22.138Z,24.80
2022-07-31T02:31:24.368Z,24.80
2022-07-31T02:34:30.058Z,24.80
2022-07-31T02:37:34.755Z,24.80
2022-07-31T02:40:37.734Z,24.80
2022-07-31T02:43:40.044Z,24.80
2022-07-31T02:46:57.975Z,24.80
2022-07-31T02:50:00.042Z,24.80
2022-07-31T02:53:02.414Z,24.70
2022-07-31T02:56:06.299Z,24.70
2022-07-31T02:59:10.204Z,24.70
2022-07-31T03:02:36.835Z,24.70
2022-07-31T03:05:40.534Z,24.70
2022-07-31T03:08:42.485Z,24.70
2022-07-31T03:11:44.734Z,24.70
2022-07-31T03:14:47.480Z,24.70
2022-07-31T03:17:51.075Z,24.70
2022-07-31T03:20:59.828Z,24.70
2022-07-31T03:24:03.493Z,24.70
2022-07-31T03:27:05.553Z,24.70
2022-07-31T03:30:15.231Z,24.70
2022-07-31T03:33:17.021Z,24.70
2022-07-31T03:36:18.990Z,24.70
2022-07-31T03:39:20.777Z,24.70
2022-07-31T03:42:22.980Z,24.70
2022-07-31T03:45:26.557Z,24.70
2022-07-31T03:48:30.325Z,24.60
2022-07-31T03:51:34.361Z,24.60
2022-07-31T03:54:36.158Z,24.60
2022-07-31T03:57:49.595Z,24.60
2022-07-31T04:00:52.223Z,24.60
2022-07-31T04:04:00.691Z,24.60
2022-07-31T04:07:22.558Z,24.60
2022-07-31T04:10:24.531Z,24.60
2022-07-31T04:13:26.499Z,24.60
2022-07-31T04:16:28.527Z,24.60
2022-07-31T04:19:31.078Z,24.60
2022-07-31T04:22:33.276Z,24.50
2022-07-31T04:25:36.656Z,24.60
2022-07-31T04:28:57.394Z,24.50
2022-07-31T04:31:59.303Z,24.50
2022-07-31T04:35:08.387Z,24.50
2022-07-31T04:38:11.944Z,24.50
2022-07-31T04:41:13.896Z,24.50
2022-07-31T04:44:15.727Z,24.50
2022-07-31T04:47:27.370Z,24.50
2022-07-31T04:50:29.309Z,24.50
2022-07-31T04:53:32.991Z,24.60
2022-07-31T04:56:43.095Z,24.60
2022-07-31T04:59:59.199Z,24.60
2022-07-31T05:03:02.731Z,24.50
2022-07-31T05:06:12.368Z,24.60
2022-07-31T05:09:19.086Z,24.60
2022-07-31T05:12:21.344Z,24.60
2022-07-31T05:15:23.164Z,24.60
2022-07-31T05:18:25.005Z,24.60
2022-07-31T05:22:05.649Z,24.60
2022-07-31T05:25:26.166Z,24.60
2022-07-31T05:28:30.021Z,24.50
2022-07-31T05:31:32.771Z,24.50
2022-07-31T05:34:34.646Z,24.60
2022-07-31T05:37:36.518Z,24.60
2022-07-31T05:40:40.127Z,24.60
2022-07-31T05:44:00.595Z,24.60
2022-07-31T05:47:10.549Z,24.60
2022-07-31T05:50:14.358Z,24.60
2022-07-31T05:53:17.675Z,24.60
2022-07-31T05:56:42.706Z,24.60
2022-07-31T05:59:47.049Z,24.60
2022-07-31T06:02:48.817Z,24.60
2022-07-31T06:06:09.237Z,24.60
2022-07-31T06:09:11.173Z,24.60
2022-07-31T06:12:17.413Z,24.60
2022-07-31T06:15:19.313Z,24.60
2022-07-31T06:18:21.188Z,24.60
2022-07-31T06:21:25.570Z,24.60
2022-07-31T06:24:29.512Z,24.60
2022-07-31T06:27:33.987Z,24.60
2022-07-31T06:30:37.455Z,24.60
2022-07-31T06:33:39.252Z,24.60
2022-07-31T06:36:41.165Z,24.60
2022-07-31T06:39:54.680Z,24.70
2022-07-31T06:43:17.543Z,24.60
2022-07-31T06:46:48.841Z,24.60
2022-07-31T06:50:13.709Z,24.60
2022-07-31T06:53:22.696Z,24.60
2022-07-31T06:56:24.534Z,24.70
2022-07-31T06:59:40.065Z,24.70
2022-07-31T07:02:43.431Z,24.60
2022-07-31T07:05:45.589Z,24.70
2022-07-31T07:08:49.009Z,24.60
2022-07-31T07:11:54.920Z,24.60
2022-07-31T07:14:58.048Z,24.70
2022-07-31T07:17:59.890Z,24.60
2022-07-31T07:21:16.462Z,24.60
2022-07-31T07:24:18.530Z,24.70
2022-07-31T07:27:26.263Z,24.60
2022-07-31T07:30:28.806Z,24.60
2022-07-31T07:33:39.930Z,24.60
2022-07-31T07:36:44.016Z,24.60
2022-07-31T07:40:04.031Z,24.60
2022-07-31T07:43:06.632Z,24.60
2022-07-31T07:46:08.522Z,24.60
2022-07-31T07:49:13.025Z,24.70
2022-07-31T07:52:34.844Z,24.70
2022-07-31T07:55:37.578Z,24.70
2022-07-31T07:58:58.284Z,24.60
2022-07-31T08:02:26.138Z,24.70
2022-07-31T08:05:27.976Z,24.70
2022-07-31T08:08:30.120Z,24.60
2022-07-31T08:12:07.573Z,24.70
2022-07-31T08:15:30.981Z,24.70
2022-07-31T08:18:59.259Z,24.70
2022-07-31T08:22:01.912Z,24.70
2022-07-31T08:25:05.763Z,24.70
2022-07-31T08:28:12.409Z,24.70
2022-07-31T08:31:21.261Z,24.70
2022-07-31T08:34:41.995Z,24.70
2022-07-31T08:37:59.208Z,24.70
2022-07-31T08:41:05.252Z,24.70
2022-07-31T08:44:09.763Z,24.70
2022-07-31T08:47:17.227Z,24.70
2022-07-31T08:50:19.573Z,24.70
2022-07-31T08:53:22.847Z,24.80
2022-07-31T08:56:40.488Z,24.80
2022-07-31T08:59:43.696Z,24.80
2022-07-31T09:02:45.777Z,24.80
2022-07-31T09:06:06.961Z,24.80
2022-07-31T09:09:09.414Z,24.80
2022-07-31T09:12:12.243Z,24.80
2022-07-31T09:15:37.637Z,24.80
2022-07-31T09:18:40.589Z,24.80
2022-07-31T09:21:45.969Z,24.80
2022-07-31T09:24:47.841Z,24.80
2022-07-31T09:27:51.728Z,24.80
2022-07-31T09:30:56.884Z,24.80
2022-07-31T09:34:30.783Z,24.80
2022-07-31T09:37:47.819Z,24.80
2022-07-31T09:41:53.685Z,24.80
2022-07-31T09:44:42.486Z,24.80
2022-07-31T09:47:44.428Z,24.80
2022-07-31T09:50:56.920Z,24.80
2022-07-31T09:53:59.614Z,24.80
2022-07-31T09:57:21.499Z,24.80
2022-07-31T10:00:29.991Z,24.80
2022-07-31T10:03:34.125Z,24.80
2022-07-31T10:06:36.419Z,24.80
2022-07-31T10:09:41.078Z,24.80
2022-07-31T10:13:15.412Z,24.80
2022-07-31T10:16:17.567Z,24.80
2022-07-31T10:19:41.934Z,24.90
2022-07-31T10:23:16.662Z,24.90
2022-07-31T10:26:21.177Z,24.90
2022-07-31T10:29:23.678Z,24.90
2022-07-31T10:32:26.288Z,24.90
2022-07-31T10:36:05.066Z,24.90
2022-07-31T10:39:45.458Z,24.90
2022-07-31T10:43:21.855Z,24.90
2022-07-31T10:46:40.023Z,24.90
2022-07-31T10:50:01.539Z,24.90
2022-07-31T10:53:17.818Z,24.90
2022-07-31T10:56:44.598Z,24.90
2022-07-31T11:00:17.262Z,24.90
2022-07-31T11:03:47.101Z,24.90
2022-07-31T11:07:21.123Z,24.90
2022-07-31T11:10:50.517Z,24.90
2022-07-31T11:14:39.598Z,24.90
2022-07-31T11:18:24.306Z,24.90
2022-07-31T11:21:40.614Z,24.90
2022-07-31T11:24:42.470Z,24.90
2022-07-31T11:27:44.242Z,24.90
2022-07-31T11:31:03.898Z,24.90
2022-07-31T11:34:05.699Z,24.90
2022-07-31T11:37:08.318Z,24.90
2022-07-31T11:40:10.602Z,24.90
2022-07-31T11:43:29.234Z,24.90
2022-07-31T11:46:33.255Z,24.90
2022-07-31T11:49:48.174Z,24.90
2022-07-31T11:53:01.560Z,24.90
2022-07-31T11:56:04.073Z,24.90
2022-07-31T11:59:06.291Z,25.00
2022-07-31T12:02:13.367Z,25.00
2022-07-31T12:05:15.387Z,25.00
2022-07-31T12:08:17.278Z,25.00
2022-07-31T12:11:20.456Z,25.00
2022-07-31T12:14:34.766Z,25.00
2022-07-31T12:17:36.632Z,25.00
2022-07-31T12:20:38.519Z,25.10
2022-07-31T12:23:51.902Z,25.10
2022-07-31T12:26:56.099Z,25.10
2022-07-31T12:29:58.237Z,25.00
2022-07-31T12:33:07.576Z,25.00
2022-07-31T12:36:13.696Z,25.00
2022-07-31T12:39:15.483Z,25.00
2022-07-31T12:42:29.183Z,25.00
2022-07-31T12:45:35.679Z,25.00
2022-07-31T12:48:41.060Z,25.00
2022-07-31T12:51:46.987Z,25.10
2022-07-31T12:54:49.551Z,25.10
2022-07-31T12:57:52.321Z,25.10
2022-07-31T13:00:56.163Z,25.00
2022-07-31T13:03:58.610Z,25.10
2022-07-31T13:07:00.962Z,25.10
2022-07-31T13:10:18.953Z,25.10
2022-07-31T13:13:25.506Z,25.10
2022-07-31T13:16:27.491Z,25.10
2022-07-31T13:19:29.490Z,25.10
2022-07-31T13:22:31.314Z,25.10
2022-07-31T13:25:33.255Z,25.10
2022-07-31T13:28:35.055Z,25.10
2022-07-31T13:31:37.083Z,25.10
2022-07-31T13:34:38.956Z,25.10
2022-07-31T13:37:42.109Z,25.10
2022-07-31T13:41:02.470Z,25.10
2022-07-31T13:44:04.969Z,25.10
2022-07-31T13:47:07.007Z,25.10
2022-07-31T13:50:08.962Z,25.10
2022-07-31T13:53:11.084Z,25.10
2022-07-31T13:56:13.788Z,25.10
2022-07-31T13:59:35.579Z,25.20
2022-07-31T14:02:37.422Z,25.20
2022-07-31T14:05:40.734Z,25.20
2022-07-31T14:08:50.189Z,25.20
2022-07-31T14:11:52.413Z,25.20
2022-07-31T14:14:54.152Z,25.20
2022-07-31T14:17:56.788Z,25.20
2022-07-31T14:20:58.683Z,25.20
2022-07-31T14:24:00.730Z,25.20
2022-07-31T14:27:02.525Z,25.20
2022-07-31T14:30:06.901Z,25.20
2022-07-31T14:33:08.707Z,25.20
2022-07-31T14:36:10.680Z,25.20
2022-07-31T14:39:12.516Z,25.20
2022-07-31T14:42:14.556Z,25.20
2022-07-31T14:45:16.480Z,25.20
2022-07-31T14:48:18.328Z,25.20
2022-07-31T14:51:20.151Z,25.20
2022-07-31T14:54:21.934Z,25.20
2022-07-31T14:57:23.796Z,25.20
2022-07-31T15:00:25.956Z,25.20
2022-07-31T15:03:27.765Z,25.20
2022-07-31T15:06:41.901Z,25.20
2022-07-31T15:09:51.378Z,25.20
2022-07-31T15:12:53.226Z,25.20
2022-07-31T15:15:55.012Z,25.20
2022-07-31T15:18:57.671Z,25.20
2022-07-31T15:22:09.985Z,25.20
2022-07-31T15:25:18.109Z,25.30
2022-07-31T15:28:20.032Z,25.20
2022-07-31T15:31:22.843Z,25.30
2022-07-31T15:34:24.674Z,25.20
2022-07-31T15:37:26.497Z,25.20
2022-07-31T15:40:28.326Z,25.20
2022-07-31T15:43:31.993Z,25.30
2022-07-31T15:46:33.770Z,25.30
2022-07-31T15:49:44.127Z,25.30
2022-07-31T15:52:47.954Z,25.30
2022-07-31T15:55:49.810Z,25.30
2022-07-31T15:58:53.902Z,25.30
2022-07-31T16:01:55.931Z,25.30
2022-07-31T16:05:10.984Z,25.30
2022-07-31T16:08:28.732Z,25.20
2022-07-31T16:12:04.504Z,25.30
2022-07-31T16:14:57.109Z,25.20
2022-07-31T16:17:58.907Z,25.20
2022-07-31T16:21:00.737Z,25.30
2022-07-31T16:24:02.589Z,25.30
2022-07-31T16:27:05.505Z,25.30
2022-07-31T16:30:07.955Z,25.30
2022-07-31T16:33:09.762Z,25.30
2022-07-31T16:36:11.617Z,25.30
2022-07-31T16:39:21.579Z,25.30
2022-07-31T16:42:23.321Z,25.40
2022-07-31T16:45:25.309Z,25.40
2022-07-31T16:48:27.178Z,25.30
2022-07-31T16:51:28.935Z,25.30
2022-07-31T16:54:30.747Z,25.30
2022-07-31T16:57:32.564Z,25.30
2022-07-31T17:00:34.449Z,25.30
2022-07-31T17:04:00.629Z,25.30
2022-07-31T17:06:58.154Z,25.30
2022-07-31T17:09:59.942Z,25.30
2022-07-31T17:13:01.748Z,25.30
2022-07-31T17:16:03.795Z,25.30
2022-07-31T17:19:05.980Z,25.30
2022-07-31T17:22:11.537Z,25.30
2022-07-31T17:25:13.443Z,25.30
2022-07-31T17:28:15.587Z,25.30
2022-07-31T17:31:18.650Z,25.30
2022-07-31T17:34:20.546Z,25.30
2022-07-31T17:37:23.772Z,25.30
2022-07-31T17:40:42.575Z,25.30
2022-07-31T17:43:50.373Z,25.30
2022-07-31T17:46:54.708Z,25.30
2022-07-31T17:49:57.331Z,25.40
2022-07-31T17:52:59.517Z,25.30
2022-07-31T17:56:01.329Z,25.30
2022-07-31T17:59:06.968Z,25.30
2022-07-31T18:02:09.362Z,25.40
2022-07-31T18:05:11.636Z,25.40
2022-07-31T18:08:13.491Z,25.40
2022-07-31T18:11:15.317Z,25.40
2022-07-31T18:14:17.159Z,25.40
2022-07-31T18:17:20.712Z,25.30
2022-07-31T18:20:22.633Z,25.30
2022-07-31T18:23:29.322Z,25.40
2022-07-31T18:26:37.400Z,25.40
2022-07-31T18:29:39.453Z,25.30
2022-07-31T18:32:42.646Z,25.40
2022-07-31T18:35:46.182Z,25.40
2022-07-31T18:38:48.075Z,25.40
2022-07-31T18:41:49.969Z,25.40
2022-07-31T18:44:51.768Z,25.30
2022-07-31T18:47:53.754Z,25.40
2022-07-31T18:51:02.437Z,25.30
2022-07-31T18:54:06.226Z,25.30
2022-07-31T18:57:08.824Z,25.40
2022-07-31T19:00:11.311Z,25.40
2022-07-31T19:03:13.166Z,25.40
2022-07-31T19:06:14.967Z,25.40
2022-07-31T19:09:19.138Z,25.40
2022-07-31T19:12:20.948Z,25.40
2022-07-31T19:15:22.805Z,25.40
2022-07-31T19:18:28.753Z,25.40
2022-07-31T19:21:42.020Z,25.40
2022-07-31T19:24:44.818Z,25.40
2022-07-31T19:27:48.339Z,25.40
2022-07-31T19:30:53.127Z,25.40
2022-07-31T19:33:55.041Z,25.30
2022-07-31T19:36:56.881Z,25.30
2022-07-31T19:39:58.781Z,25.40
2022-07-31T19:43:00.924Z,25.40
2022-07-31T19:46:12.253Z,25.40
2022-07-31T19:49:14.526Z,25.40
2022-07-31T19:52:16.454Z,25.40
2022-07-31T19:55:18.437Z,25.40
2022-07-31T19:58:21.190Z,25.30
2022-07-31T20:01:23.200Z,25.40
2022-07-31T20:04:25.550Z,25.40
2022-07-31T20:07:32.501Z,25.30
2022-07-31T20:10:34.813Z,25.30
2022-07-31T20:13:39.636Z,25.30
2022-07-31T20:16:41.604Z,25.30
2022-07-31T20:20:14.748Z,25.30
2022-07-31T20:23:05.780Z,25.30
2022-07-31T20:26:09.609Z,25.30
2022-07-31T20:29:11.607Z,25.30
2022-07-31T20:32:13.518Z,25.40
2022-07-31T20:35:29.038Z,25.40
2022-07-31T20:38:37.550Z,25.40
2022-07-31T20:41:39.498Z,25.40
2022-07-31T20:44:42.689Z,25.40
2022-07-31T20:47:44.492Z,25.40
2022-07-31T20:50:47.714Z,25.40
2022-07-31T20:53:51.691Z,25.40
2022-07-31T20:56:53.655Z,25.40
2022-07-31T20:59:55.534Z,25.40
2022-07-31T21:02:57.390Z,25.40
2022-07-31T21:05:59.334Z,25.40
2022-07-31T21:09:01.112Z,25.40
2022-07-31T21:12:08.482Z,25.50
2022-07-31T21:15:43.228Z,25.50
2022-07-31T21:18:34.661Z,25.50
2022-07-31T21:21:37.203Z,25.50
2022-07-31T21:24:39.211Z,25.50
2022-07-31T21:27:41.093Z,25.50
2022-07-31T21:30:43.064Z,25.50
2022-07-31T21:33:45.443Z,25.50
2022-07-31T21:36:48.171Z,25.50
2022-07-31T21:39:50.719Z,25.50
2022-07-31T21:42:55.181Z,25.40
2022-07-31T21:46:03.764Z,25.40
2022-07-31T21:49:07.826Z,25.40
2022-07-31T21:52:10.280Z,25.40
2022-07-31T21:55:12.131Z,25.40
2022-07-31T21:58:14.261Z,25.40
2022-07-31T22:01:16.143Z,25.40
2022-07-31T22:04:17.986Z,25.40
2022-07-31T22:07:34.724Z,25.40
2022-07-31T22:10:36.559Z,25.40
2022-07-31T22:13:38.442Z,25.40
2022-07-31T22:16:40.248Z,25.40
2022-07-31T22:19:47.466Z,25.40
2022-07-31T22:22:51.441Z,25.40
2022-07-31T22:25:53.791Z,25.40
2022-07-31T22:28:56.508Z,25.40
2022-07-31T22:31:58.627Z,25.40
2022-07-31T22:35:00.702Z,25.30
2022-07-31T22:38:02.633Z,25.40
2022-07-31T22:41:05.783Z,25.40
2022-07-31T22:44:13.923Z,25.40
2022-07-31T22:47:17.342Z,25.40
2022-07-31T22:50:19.204Z,25.40
2022-07-31T22:53:21.197Z,25.40
2022-07-31T22:56:23.025Z,25.40
2022-07-31T22:59:25.168Z,25.40
2022-07-31T23:02:27.384Z,25.40
2022-07-31T23:05:29.280Z,25.40
2022-07-31T23:08:54.665Z,25.40
2022-07-31T23:11:58.079Z,25.40
2022-07-31T23:15:02.863Z,25.40
2022-07-31T23:18:04.799Z,25.40
2022-07-31T23:21:08.423Z,25.40
2022-07-31T23:24:11.788Z,25.40
2022-07-31T23:27:13.604Z,25.40
2022-07-31T23:30:15.430Z,25.40
2022-07-31T23:33:17.283Z,25.40
2022-07-31T23:36:19.121Z,25.40
2022-07-31T23:39:22.959Z,25.40
2022-07-31T23:42:40.182Z,25.40
2022-07-31T23:45:41.979Z,25.40
2022-07-31T23:48:45.994Z,25.40
2022-07-31T23:51:47.870Z,25.40
2022-07-31T23:54:49.680Z,25.40
2022-07-31T23:57:51.508Z,25.40
